Time;durP1;ratioP1;P1;durP2;ratioP2;P2;SDS_P1;SDS_P2;PMS_P1;PMS_P2;Temp;Humidity;BMP_temperature;BMP_pressure;BME280_temperature;BME280_humidity;BME280_pressure;Samples;Min_cycle;Max_cycle;Signal;HPM_P1;HPM_P2
2021/01/14 00:01:01;;;;;;;10.52;5.55;;;5.30;99.90;;;;;;5104732;28;20095;-73
2021/01/14 00:03:27;;;;;;;13.55;4.97;;;5.30;99.90;;;;;;5104723;28;20113;-73
2021/01/14 00:06:06;;;;;;;9.57;5.07;;;5.40;99.90;;;;;;5105357;27;20048;-73
2021/01/14 00:08:33;;;;;;;9.15;4.53;;;5.30;99.90;;;;;;5108722;27;20035;-72
2021/01/14 00:10:59;;;;;;;9.55;5.40;;;5.30;99.90;;;;;;5107346;28;20055;-72
2021/01/14 00:13:26;;;;;;;10.50;4.97;;;5.30;99.90;;;;;;5099847;27;20084;-72
2021/01/14 00:15:52;;;;;;;11.65;4.78;;;5.30;99.90;;;;;;5108271;28;20040;-72
2021/01/14 00:18:18;;;;;;;14.50;4.72;;;5.30;99.90;;;;;;5108089;28;20055;-71
2021/01/14 00:20:45;;;;;;;11.50;4.82;;;5.40;99.90;;;;;;5103292;28;20052;-73
2021/01/14 00:23:11;;;;;;;9.70;5.05;;;5.40;99.90;;;;;;5107050;28;20496;-73
2021/01/14 00:25:37;;;;;;;10.98;4.88;;;5.40;99.90;;;;;;5104076;27;20559;-75
2021/01/14 00:28:04;;;;;;;12.32;4.60;;;5.40;99.90;;;;;;5107645;28;20047;-72
2021/01/14 00:30:31;;;;;;;9.50;4.72;;;5.40;99.90;;;;;;5104475;27;20052;-72
2021/01/14 00:32:59;;;;;;;10.18;4.70;;;5.50;99.90;;;;;;5100031;28;20060;-72
2021/01/14 00:35:26;;;;;;;11.52;4.97;;;5.30;99.90;;;;;;5105124;28;20063;-72
2021/01/14 00:37:53;;;;;;;12.20;4.50;;;5.50;99.90;;;;;;5097020;28;20052;-72
2021/01/14 00:40:25;;;;;;;9.55;4.05;;;5.50;99.90;;;;;;5105136;28;20079;-70
2021/01/14 00:42:55;;;;;;;9.20;4.30;;;5.50;99.90;;;;;;5099986;27;20078;-71
2021/01/14 00:45:22;;;;;;;8.75;4.22;;;5.50;99.90;;;;;;5105259;27;20144;-71
2021/01/14 00:47:48;;;;;;;6.82;3.88;;;5.60;99.90;;;;;;5102780;28;20139;-71
2021/01/14 00:50:15;;;;;;;8.43;3.72;;;5.60;99.90;;;;;;5098956;28;20053;-72
2021/01/14 00:52:41;;;;;;;8.90;4.18;;;5.60;99.90;;;;;;5103806;28;20067;-71
2021/01/14 00:55:09;;;;;;;6.82;3.95;;;5.50;99.90;;;;;;5100199;27;20406;-72
2021/01/14 00:57:36;;;;;;;11.60;4.28;;;5.60;99.90;;;;;;5105498;28;20051;-70
2021/01/14 01:00:08;;;;;;;8.88;3.42;;;5.60;99.90;;;;;;5101160;28;20052;-70
2021/01/14 01:02:34;;;;;;;8.00;3.55;;;5.60;99.50;;;;;;5105055;28;20047;-71
2021/01/14 01:05:01;;;;;;;11.38;3.92;;;5.70;98.70;;;;;;5105247;28;20454;-70
2021/01/14 01:07:28;;;;;;;7.57;3.25;;;5.70;98.90;;;;;;5103314;28;20162;-70
2021/01/14 01:09:54;;;;;;;6.70;3.28;;;5.80;98.80;;;;;;5100571;28;20052;-71
2021/01/14 01:12:20;;;;;;;9.43;3.92;;;5.70;98.50;;;;;;5102340;28;20112;-72
2021/01/14 01:14:46;;;;;;;6.38;3.42;;;5.70;98.50;;;;;;5105317;28;20052;-72
2021/01/14 01:17:13;;;;;;;12.07;3.90;;;5.70;98.60;;;;;;5100452;28;20067;-72
2021/01/14 01:19:39;;;;;;;8.23;3.80;;;5.70;98.40;;;;;;5097883;28;20508;-72
2021/01/14 01:22:06;;;;;;;9.23;3.17;;;5.70;98.30;;;;;;5099482;28;20051;-73
2021/01/14 01:24:32;;;;;;;7.53;3.17;;;5.70;98.30;;;;;;5097022;28;20039;-71
2021/01/14 01:26:59;;;;;;;15.80;3.70;;;5.70;98.40;;;;;;5105301;28;20052;-72
2021/01/14 01:29:25;;;;;;;6.88;3.58;;;5.80;98.10;;;;;;5102989;28;20542;-72
2021/01/14 01:31:51;;;;;;;7.32;2.83;;;5.80;97.60;;;;;;5103432;28;20538;-71
2021/01/14 01:34:18;;;;;;;8.02;3.00;;;5.80;97.70;;;;;;5105845;28;20044;-70
2021/01/14 01:36:50;;;;;;;7.25;3.42;;;5.80;97.30;;;;;;5098945;28;20043;-72
2021/01/14 01:39:17;;;;;;;12.95;4.03;;;5.80;97.60;;;;;;5099559;28;20052;-71
2021/01/14 01:41:43;;;;;;;9.82;4.47;;;5.80;97.90;;;;;;5101292;28;20214;-72
2021/01/14 01:44:09;;;;;;;12.80;3.63;;;5.80;98.00;;;;;;5094314;28;20528;-71
2021/01/14 01:46:36;;;;;;;8.30;3.72;;;5.90;97.20;;;;;;5099063;28;20518;-71
2021/01/14 01:49:02;;;;;;;8.52;3.40;;;5.90;97.30;;;;;;5102837;28;20055;-71
2021/01/14 01:51:41;;;;;;;11.57;3.25;;;6.00;97.30;;;;;;5101134;28;20454;-71
2021/01/14 01:54:10;;;;;;;5.90;2.67;;;5.90;97.50;;;;;;5103682;28;20123;-75
2021/01/14 01:56:37;;;;;;;8.32;3.35;;;5.90;97.20;;;;;;5103489;28;20051;-72
2021/01/14 01:59:04;;;;;;;7.85;3.33;;;5.90;97.60;;;;;;5104238;28;20498;-73
2021/01/14 02:01:30;;;;;;;6.85;3.05;;;5.80;97.70;;;;;;5106732;28;20051;-72
2021/01/14 02:03:56;;;;;;;7.43;2.95;;;6.10;97.90;;;;;;5104032;28;20140;-71
2021/01/14 02:06:23;;;;;;;11.05;3.63;;;5.90;97.90;;;;;;5099714;28;20465;-72
2021/01/14 02:08:54;;;;;;;7.18;3.70;;;5.80;97.70;;;;;;5108000;27;20117;-72
2021/01/14 02:11:28;;;;;;;11.85;3.67;;;5.80;97.90;;;;;;5117951;27;20079;-71
2021/01/14 02:14:13;;;;;;;7.82;3.38;;;5.80;97.80;;;;;;5108920;28;20498;-71
2021/01/14 02:16:44;;;;;;;8.88;4.00;;;5.60;98.00;;;;;;5102033;27;20463;-71
2021/01/14 02:19:15;;;;;;;7.13;3.65;;;5.80;98.20;;;;;;5107804;28;20144;-71
2021/01/14 02:21:46;;;;;;;7.82;3.53;;;5.80;98.30;;;;;;5112784;27;20514;-71
2021/01/14 02:24:41;;;;;;;10.52;3.92;;;5.90;98.30;;;;;;5099216;28;20052;-71
2021/01/14 02:27:09;;;;;;;7.65;3.58;;;5.70;98.30;;;;;;5106688;28;20060;-72
2021/01/14 02:29:36;;;;;;;8.95;3.65;;;5.80;98.30;;;;;;5107076;28;20453;-70
2021/01/14 02:32:03;;;;;;;7.43;3.80;;;5.70;98.50;;;;;;5107525;28;20078;-71
2021/01/14 02:34:29;;;;;;;7.90;3.53;;;5.70;98.60;;;;;;5109734;28;20079;-70
2021/01/14 02:36:55;;;;;;;7.25;3.40;;;5.60;99.10;;;;;;5105392;28;20494;-70
2021/01/14 02:39:22;;;;;;;7.07;3.65;;;5.70;99.40;;;;;;5104187;28;20050;-71
2021/01/14 02:41:49;;;;;;;10.63;3.55;;;5.70;99.40;;;;;;5109326;28;20048;-70
2021/01/14 02:44:15;;;;;;;13.00;3.97;;;5.60;99.50;;;;;;5111357;27;20048;-70
2021/01/14 02:46:42;;;;;;;12.35;3.60;;;5.70;99.60;;;;;;5109027;28;20071;-70
2021/01/14 02:49:09;;;;;;;13.32;4.43;;;5.50;99.90;;;;;;5107736;28;20040;-70
2021/01/14 02:51:54;;;;;;;9.65;4.25;;;5.50;99.90;;;;;;5111466;28;20052;-71
2021/01/14 02:54:20;;;;;;;10.77;4.50;;;5.40;99.90;;;;;;5109757;28;20454;-71
2021/01/14 02:56:50;;;;;;;9.63;4.32;;;5.50;99.90;;;;;;5111591;28;20055;-70
2021/01/14 02:59:17;;;;;;;10.85;4.13;;;5.50;99.90;;;;;;5106779;28;20085;-71
2021/01/14 03:01:44;;;;;;;10.90;4.10;;;5.60;99.90;;;;;;5110033;28;20131;-71
2021/01/14 03:04:10;;;;;;;9.73;4.50;;;5.60;99.90;;;;;;5113231;28;20082;-69
2021/01/14 03:06:37;;;;;;;14.32;4.60;;;5.50;99.90;;;;;;5110627;28;20052;-71
2021/01/14 03:09:04;;;;;;;8.50;4.10;;;5.50;99.90;;;;;;5107041;28;20067;-71
2021/01/14 03:11:34;;;;;;;9.48;4.15;;;5.70;99.90;;;;;;5109921;28;20461;-71
2021/01/14 03:14:01;;;;;;;13.93;4.05;;;5.60;99.90;;;;;;5103149;27;20123;-70
2021/01/14 03:16:27;;;;;;;9.95;4.53;;;5.50;99.90;;;;;;5111478;28;20437;-70
2021/01/14 03:18:54;;;;;;;10.18;4.40;;;5.50;99.90;;;;;;5108926;27;20040;-71
2021/01/14 03:21:24;;;;;;;7.20;3.92;;;5.60;99.90;;;;;;5109972;27;20118;-70
2021/01/14 03:23:52;;;;;;;9.93;4.32;;;5.60;99.90;;;;;;5108497;28;20044;-71
2021/01/14 03:26:19;;;;;;;6.07;3.20;;;5.60;99.90;;;;;;5105463;27;20116;-70
2021/01/14 03:28:47;;;;;;;10.10;4.03;;;5.60;99.90;;;;;;5113219;28;20052;-71
2021/01/14 03:31:15;;;;;;;10.23;3.85;;;5.60;99.90;;;;;;5105627;27;20079;-71
2021/01/14 03:33:43;;;;;;;10.75;3.95;;;5.70;99.90;;;;;;5105586;28;20073;-70
2021/01/14 03:36:13;;;;;;;11.13;4.32;;;5.50;99.90;;;;;;5110492;28;20096;-69
2021/01/14 03:38:40;;;;;;;10.38;4.15;;;5.60;99.90;;;;;;5108292;28;20453;-70
2021/01/14 03:41:09;;;;;;;13.35;4.60;;;5.40;99.90;;;;;;5100888;28;20461;-71
2021/01/14 03:43:35;;;;;;;10.13;4.90;;;5.40;99.90;;;;;;5107828;28;20498;-70
2021/01/14 03:46:14;;;;;;;16.23;4.78;;;5.20;99.90;;;;;;5103518;28;20051;-71
2021/01/14 03:48:45;;;;;;;9.35;4.80;;;5.20;99.90;;;;;;5109688;28;20078;-71
2021/01/14 03:51:22;;;;;;;10.73;4.00;;;5.30;99.90;;;;;;5106545;28;20047;-71
2021/01/14 03:53:50;;;;;;;9.55;4.20;;;5.10;99.90;;;;;;5109127;27;20043;-71
2021/01/14 03:56:17;;;;;;;9.98;4.32;;;5.00;99.90;;;;;;5107370;28;20052;-71
2021/01/14 03:58:43;;;;;;;8.70;3.95;;;5.00;99.90;;;;;;5102627;27;20043;-71
2021/01/14 04:01:10;;;;;;;10.38;4.65;;;5.00;99.90;;;;;;5102802;27;20068;-71
2021/01/14 04:03:43;;;;;;;9.65;4.40;;;5.00;99.90;;;;;;5107252;28;20402;-70
2021/01/14 04:06:10;;;;;;;11.52;4.93;;;4.90;99.90;;;;;;5108841;28;20101;-70
2021/01/14 04:08:37;;;;;;;13.40;5.38;;;4.90;99.90;;;;;;5107792;27;20454;-71
2021/01/14 04:11:04;;;;;;;12.77;5.50;;;4.90;99.90;;;;;;5101948;28;20079;-71
2021/01/14 04:13:31;;;;;;;12.80;5.88;;;5.20;99.90;;;;;;5107340;27;20040;-71
2021/01/14 04:15:58;;;;;;;13.48;6.63;;;5.10;99.90;;;;;;5107887;28;20061;-70
2021/01/14 04:18:24;;;;;;;23.90;7.07;;;5.00;99.90;;;;;;5107237;28;20048;-71
2021/01/14 04:20:52;;;;;;;14.85;6.40;;;5.00;99.90;;;;;;5107134;28;20044;-71
2021/01/14 04:23:18;;;;;;;22.65;8.48;;;5.00;99.90;;;;;;5110744;28;20470;-71
2021/01/14 04:25:45;;;;;;;17.92;6.85;;;5.10;99.90;;;;;;5103286;28;20048;-71
2021/01/14 04:28:12;;;;;;;15.77;7.47;;;5.10;99.90;;;;;;5099992;28;20036;-71
2021/01/14 04:30:38;;;;;;;17.35;7.03;;;5.10;99.90;;;;;;5103154;28;20044;-71
2021/01/14 04:33:11;;;;;;;19.20;6.65;;;5.10;99.90;;;;;;5104062;27;20065;-71
2021/01/14 04:35:57;;;;;;;13.30;5.90;;;5.10;99.90;;;;;;5109940;28;20444;-71
2021/01/14 04:38:26;;;;;;;13.55;5.97;;;5.50;99.90;;;;;;5105878;28;20404;-71
2021/01/14 04:41:01;;;;;;;14.02;5.43;;;5.20;99.90;;;;;;5095785;28;20487;-71
2021/01/14 04:43:28;;;;;;;17.95;5.97;;;5.20;99.90;;;;;;5109740;28;20486;-70
2021/01/14 04:46:04;;;;;;;15.43;6.75;;;5.20;99.90;;;;;;5105928;28;20459;-69
2021/01/14 04:48:34;;;;;;;15.40;5.72;;;5.30;99.90;;;;;;5102813;27;20092;-70
2021/01/14 04:51:18;;;;;;;21.02;7.70;;;5.30;99.90;;;;;;5105392;28;20056;-70
2021/01/14 04:53:48;;;;;;;11.23;5.10;;;5.20;99.90;;;;;;5102050;27;20154;-71
2021/01/14 04:56:15;;;;;;;;;;;5.10;99.90;;;;;;5103460;28;20543;-70
2021/01/14 04:58:46;;;;;;;12.43;4.40;;;5.10;99.90;;;;;;5107470;28;20280;-70
2021/01/14 05:01:21;;;;;;;11.13;4.57;;;5.20;99.90;;;;;;5103170;28;20048;-70
2021/01/14 05:03:50;;;;;;;11.18;4.00;;;5.20;99.90;;;;;;5105895;28;20116;-70
2021/01/14 05:06:22;;;;;;;7.88;4.13;;;5.20;99.90;;;;;;5108072;28;20051;-70
2021/01/14 05:08:51;;;;;;;12.43;4.47;;;5.20;99.90;;;;;;5106913;28;20044;-70
2021/01/14 05:11:18;;;;;;;10.50;4.00;;;5.10;99.90;;;;;;5104232;28;20079;-70
2021/01/14 05:13:47;;;;;;;8.30;3.60;;;5.00;99.90;;;;;;5108837;28;20080;-70
2021/01/14 05:16:14;;;;;;;17.35;4.63;;;5.00;99.90;;;;;;5109538;28;20069;-70
2021/01/14 05:18:40;;;;;;;10.80;3.85;;;4.90;99.90;;;;;;5104933;28;20098;-70
2021/01/14 05:21:07;;;;;;;8.88;3.60;;;4.80;99.80;;;;;;5104137;28;20479;-70
2021/01/14 05:23:34;;;;;;;10.68;3.97;;;5.00;99.90;;;;;;5109071;28;20044;-71
2021/01/14 05:26:01;;;;;;;11.90;4.00;;;4.80;99.90;;;;;;5106360;28;20048;-69
2021/01/14 05:28:32;;;;;;;11.65;4.10;;;4.80;99.80;;;;;;5109168;28;20062;-70
2021/01/14 05:31:17;;;;;;;13.90;3.75;;;4.80;99.80;;;;;;5105511;28;20044;-70
2021/01/14 05:33:43;;;;;;;9.85;3.47;;;4.80;99.60;;;;;;5100401;28;20119;-70
2021/01/14 05:36:10;;;;;;;8.43;3.28;;;4.80;99.40;;;;;;5106396;28;20043;-71
2021/01/14 05:38:37;;;;;;;11.13;3.42;;;5.00;99.10;;;;;;5106368;28;20044;-70
2021/01/14 05:41:19;;;;;;;8.20;3.42;;;5.00;99.00;;;;;;5106049;28;20093;-71
2021/01/14 05:43:57;;;;;;;7.55;3.63;;;4.90;98.90;;;;;;5110168;28;20486;-70
2021/01/14 05:46:28;;;;;;;6.45;3.50;;;4.90;99.00;;;;;;5110791;28;20083;-70
2021/01/14 05:48:57;;;;;;;13.57;3.97;;;4.90;98.90;;;;;;5096290;28;20455;-70
2021/01/14 05:51:25;;;;;;;9.57;3.78;;;5.20;98.90;;;;;;5110092;28;20467;-70
2021/01/14 05:53:58;;;;;;;11.48;4.07;;;5.10;98.90;;;;;;5110906;28;20100;-70
2021/01/14 05:56:42;;;;;;;11.50;4.07;;;5.10;98.70;;;;;;5109745;28;20083;-70
2021/01/14 05:59:11;;;;;;;9.52;3.53;;;4.90;98.20;;;;;;5110458;28;20093;-70
2021/01/14 06:01:55;;;;;;;16.40;3.88;;;4.90;97.90;;;;;;5099133;28;20043;-70
2021/01/14 06:04:25;;;;;;;8.05;3.22;;;4.80;97.40;;;;;;5110381;28;20044;-70
2021/01/14 06:06:54;;;;;;;12.50;5.15;;;5.00;97.40;;;;;;5110247;28;20079;-70
2021/01/14 06:09:22;;;;;;;10.25;3.53;;;5.00;97.50;;;;;;5109568;27;20070;-70
2021/01/14 06:11:50;;;;;;;9.05;3.60;;;5.00;97.10;;;;;;5109092;27;20495;-70
2021/01/14 06:14:29;;;;;;;10.15;3.80;;;5.10;97.20;;;;;;5109162;27;20098;-70
2021/01/14 06:16:59;;;;;;;10.20;3.83;;;5.00;97.30;;;;;;5107841;27;20417;-70
2021/01/14 06:19:26;;;;;;;8.38;3.72;;;5.10;97.20;;;;;;5107305;28;20105;-70
2021/01/14 06:21:55;;;;;;;6.55;3.17;;;5.00;97.10;;;;;;5108430;28;20130;-69
2021/01/14 06:24:30;;;;;;;9.68;3.65;;;5.20;97.60;;;;;;5104969;28;20052;-69
2021/01/14 06:26:57;;;;;;;10.18;3.67;;;4.90;97.60;;;;;;5105157;28;20105;-70
2021/01/14 06:29:26;;;;;;;11.18;3.80;;;4.90;97.60;;;;;;5112034;27;20044;-70
2021/01/14 06:32:12;;;;;;;11.80;3.72;;;4.80;97.10;;;;;;5109296;28;20075;-70
2021/01/14 06:34:48;;;;;;;10.77;2.85;;;4.80;97.10;;;;;;5109892;28;20051;-70
2021/01/14 06:37:19;;;;;;;10.30;3.45;;;4.80;96.30;;;;;;5108451;28;20051;-69
2021/01/14 06:39:47;;;;;;;14.57;3.58;;;4.70;96.00;;;;;;5110455;28;20048;-69
2021/01/14 06:42:19;;;;;;;5.72;2.38;;;5.00;95.80;;;;;;5103717;28;20581;-69
2021/01/14 06:44:53;;;;;;;10.13;2.92;;;4.70;95.70;;;;;;5102965;28;20185;-70
2021/01/14 06:47:56;;;;;;;5.10;2.53;;;4.90;95.60;;;;;;5105591;28;20127;-70
2021/01/14 06:50:24;;;;;;;8.00;2.80;;;4.60;95.90;;;;;;5102380;28;20158;-70
2021/01/14 06:52:59;;;;;;;9.38;2.67;;;4.60;96.00;;;;;;5107674;27;20460;-69
2021/01/14 06:55:34;;;;;;;6.05;2.78;;;4.60;94.80;;;;;;5105927;28;20537;-69
2021/01/14 06:58:10;;;;;;;9.77;2.65;;;4.60;94.60;;;;;;5110758;28;20093;-71
2021/01/14 07:00:50;;;;;;;7.47;2.05;;;4.70;94.70;;;;;;5109545;27;20048;-69
2021/01/14 07:03:18;;;;;;;2.63;1.70;;;5.00;94.10;;;;;;5107350;28;20087;-70
2021/01/14 07:05:53;;;;;;;8.75;2.25;;;4.70;94.20;;;;;;5110742;28;20105;-70
2021/01/14 07:08:39;;;;;;;6.78;2.20;;;4.70;93.80;;;;;;5104433;28;20120;-70
2021/01/14 07:11:18;;;;;;;13.52;2.40;;;4.70;93.70;;;;;;5111637;28;20048;-70
2021/01/14 07:13:50;;;;;;;9.48;2.70;;;4.60;93.70;;;;;;5106321;28;20079;-71
2021/01/14 07:16:22;;;;;;;3.65;1.98;;;4.90;94.00;;;;;;5108653;28;20052;-70
2021/01/14 07:18:50;;;;;;;7.47;3.05;;;4.90;93.40;;;;;;5109385;28;20071;-69
2021/01/14 07:21:35;;;;;;;9.25;2.25;;;4.70;93.50;;;;;;5105068;28;20059;-71
2021/01/14 07:24:18;;;;;;;13.23;4.10;;;5.00;93.50;;;;;;5111389;28;20579;-70
2021/01/14 07:26:57;;;;;;;7.30;2.03;;;4.80;92.60;;;;;;5106535;28;20089;-71
2021/01/14 07:29:28;;;;;;;5.45;2.17;;;4.80;92.00;;;;;;5107105;28;20051;-70
2021/01/14 07:31:59;;;;;;;8.30;1.70;;;4.80;92.20;;;;;;5107731;28;20047;-71
2021/01/14 07:34:42;;;;;;;9.75;2.30;;;4.80;92.40;;;;;;5108439;27;20036;-71
2021/01/14 07:37:18;;;;;;;9.80;2.28;;;4.80;92.50;;;;;;5108057;28;20097;-71
2021/01/14 07:39:58;;;;;;;7.28;2.08;;;5.00;92.30;;;;;;5104910;28;20093;-72
2021/01/14 07:42:27;;;;;;;7.32;2.10;;;4.80;91.90;;;;;;5108955;28;20083;-71
2021/01/14 07:44:57;;;;;;;7.57;1.75;;;4.70;91.90;;;;;;5107751;27;20096;-71
2021/01/14 07:47:31;;;;;;;7.07;1.70;;;4.70;91.80;;;;;;5105406;28;20130;-71
2021/01/14 07:49:59;;;;;;;10.15;2.05;;;4.70;91.70;;;;;;5109438;28;21434;-71
2021/01/14 07:52:34;;;;;;;9.57;2.22;;;5.00;92.10;;;;;;5108000;28;20076;-71
2021/01/14 07:55:07;;;;;;;7.63;2.42;;;4.70;92.20;;;;;;5103689;28;20076;-70
2021/01/14 07:57:47;;;;;;;8.57;2.60;;;5.00;92.20;;;;;;5106641;28;20394;-70
2021/01/14 08:00:22;;;;;;;11.73;2.30;;;4.70;92.10;;;;;;5102865;28;20048;-69
2021/01/14 08:03:11;;;;;;;11.27;2.00;;;4.80;92.00;;;;;;5106326;28;20091;-71
2021/01/14 08:05:58;;;;;;;6.30;2.05;;;4.60;91.70;;;;;;5105957;28;20127;-71
2021/01/14 08:08:36;;;;;;;10.88;2.65;;;4.60;91.80;;;;;;5106773;28;20101;-70
2021/01/14 08:11:15;;;;;;;7.70;2.35;;;4.60;92.10;;;;;;5105087;28;20039;-71
2021/01/14 08:14:01;;;;;;;9.70;2.72;;;4.60;92.30;;;;;;5099574;28;20343;-70
2021/01/14 08:16:50;;;;;;;6.22;2.22;;;4.70;92.20;;;;;;5109389;28;20075;-70
2021/01/14 08:19:26;;;;;;;10.35;2.78;;;4.70;92.40;;;;;;5107904;28;20402;-70
2021/01/14 08:21:58;;;;;;;7.18;2.53;;;4.70;93.00;;;;;;5111314;27;20043;-70
2021/01/14 08:25:02;;;;;;;13.60;2.63;;;4.60;92.70;;;;;;5108099;28;20514;-69
2021/01/14 08:27:32;;;;;;;9.27;2.38;;;4.70;93.20;;;;;;5066372;28;20076;-69
2021/01/14 08:29:59;;;;;;;9.32;3.03;;;4.60;92.80;;;;;;5089242;28;20079;-69
2021/01/14 08:32:48;;;;;;;14.20;2.72;;;4.70;92.70;;;;;;5107769;28;20356;-71
2021/01/14 08:35:30;;;;;;;4.38;2.05;;;4.60;92.50;;;;;;5103934;28;20055;-71
2021/01/14 08:38:11;;;;;;;6.22;2.13;;;4.60;92.30;;;;;;5108701;27;20073;-71
2021/01/14 08:40:39;;;;;;;9.90;2.33;;;4.70;92.50;;;;;;5120384;27;20055;-71
2021/01/14 08:43:13;;;;;;;4.65;1.75;;;4.70;92.30;;;;;;5106594;28;20047;-70
2021/01/14 08:45:49;;;;;;;18.52;2.20;;;4.60;91.80;;;;;;5103700;27;20494;-71
2021/01/14 08:48:22;;;;;;;5.97;1.85;;;4.60;91.60;;;;;;5108281;28;20043;-71
2021/01/14 08:50:59;;;;;;;9.43;2.40;;;4.40;91.70;;;;;;5107100;28;20079;-70
2021/01/14 08:53:30;;;;;;;9.25;1.95;;;4.60;91.60;;;;;;5108069;28;20075;-71
2021/01/14 08:56:04;;;;;;;4.72;2.33;;;4.70;91.20;;;;;;5108220;28;20544;-71
2021/01/14 08:58:44;;;;;;;11.93;2.17;;;4.80;91.10;;;;;;5107397;27;20486;-71
2021/01/14 09:01:24;;;;;;;7.47;1.77;;;4.80;90.90;;;;;;5104425;28;20050;-71
2021/01/14 09:03:54;;;;;;;5.55;1.42;;;4.80;90.20;;;;;;5106969;28;20286;-71
2021/01/14 09:06:37;;;;;;;6.00;1.88;;;4.70;90.20;;;;;;5102776;28;20475;-69
2021/01/14 09:09:14;;;;;;;5.35;1.33;;;4.60;90.30;;;;;;5109843;28;20055;-71
2021/01/14 09:11:40;;;;;;;5.32;1.55;;;4.70;90.30;;;;;;5104542;28;20471;-71
2021/01/14 09:14:14;;;;;;;4.35;1.70;;;4.70;89.60;;;;;;5097248;28;20102;-71
2021/01/14 09:16:42;;;;;;;5.18;2.08;;;5.00;89.70;;;;;;5106813;28;20075;-70
2021/01/14 09:19:16;;;;;;;9.20;1.80;;;4.80;89.60;;;;;;5102551;28;20530;-70
2021/01/14 09:21:43;;;;;;;7.30;2.00;;;4.80;89.40;;;;;;5097452;28;20047;-70
2021/01/14 09:24:14;;;;;;;9.18;1.83;;;4.90;89.30;;;;;;5103826;28;20040;-71
2021/01/14 09:26:41;;;;;;;9.98;1.33;;;5.10;89.30;;;;;;5098453;28;20093;-71
2021/01/14 09:29:12;;;;;;;5.47;1.67;;;4.70;88.00;;;;;;5104683;28;20160;-71
2021/01/14 09:31:42;;;;;;;6.78;1.27;;;4.70;86.90;;;;;;5104821;28;20048;-71
2021/01/14 09:34:09;;;;;;;3.80;1.23;;;4.90;87.00;;;;;;5107367;28;20063;-71
2021/01/14 09:36:36;;;;;;;7.40;1.63;;;4.80;87.10;;;;;;5110242;28;20048;-72
2021/01/14 09:39:07;;;;;;;4.43;1.30;;;5.00;87.50;;;;;;5106332;28;20154;-73
2021/01/14 09:41:38;;;;;;;7.22;1.38;;;4.80;87.10;;;;;;5099932;28;20047;-72
2021/01/14 09:44:09;;;;;;;5.38;1.50;;;4.90;87.30;;;;;;5108238;28;20086;-71
2021/01/14 09:46:38;;;;;;;7.15;1.48;;;5.00;87.50;;;;;;5101430;28;20105;-70
2021/01/14 09:49:07;;;;;;;7.13;1.65;;;4.90;87.10;;;;;;5102469;28;20072;-71
2021/01/14 09:51:34;;;;;;;9.83;1.63;;;4.90;87.60;;;;;;5104618;28;20071;-70
2021/01/14 09:54:09;;;;;;;5.97;1.40;;;4.90;88.10;;;;;;5091906;28;20450;-71
2021/01/14 09:56:52;;;;;;;3.67;1.60;;;4.80;87.10;;;;;;5106547;28;20040;-71
2021/01/14 09:59:36;;;;;;;8.40;1.58;;;5.00;87.50;;;;;;5100042;28;20664;-73
2021/01/14 10:02:27;;;;;;;6.00;1.67;;;4.90;87.80;;;;;;5103657;28;20055;-71
2021/01/14 10:04:57;;;;;;;;;;;5.00;88.40;;;;;;5104544;28;20075;-73
2021/01/14 10:07:26;;;;;;;7.95;2.00;;;5.00;88.00;;;;;;5105722;28;20351;-72
2021/01/14 10:09:53;;;;;;;5.70;1.80;;;5.10;89.20;;;;;;5106304;28;20089;-71
2021/01/14 10:12:20;;;;;;;5.28;1.77;;;5.10;88.80;;;;;;5107441;28;20075;-71
2021/01/14 10:14:46;;;;;;;4.57;2.17;;;5.00;88.20;;;;;;5100083;28;20063;-70
2021/01/14 10:17:17;;;;;;;9.25;2.00;;;4.80;88.20;;;;;;5104764;28;20101;-74
2021/01/14 10:19:48;;;;;;;7.22;1.92;;;5.00;88.30;;;;;;5105137;28;20079;-76
2021/01/14 10:22:15;;;;;;;4.85;1.90;;;5.00;88.60;;;;;;5102521;28;20059;-75
2021/01/14 10:24:41;;;;;;;10.10;1.90;;;5.00;89.50;;;;;;5105529;28;20403;-74
2021/01/14 10:27:19;;;;;;;7.57;1.70;;;5.00;89.00;;;;;;5103019;28;20063;-74
2021/01/14 10:29:46;;;;;;;5.78;1.40;;;5.10;88.60;;;;;;5104763;27;20130;-77
2021/01/14 10:32:22;;;;;;;4.60;1.88;;;5.00;88.10;;;;;;5084148;28;20048;-72
2021/01/14 10:34:53;;;;;;;4.97;2.47;;;4.70;88.70;;;;;;5087443;27;20047;-71
2021/01/14 10:37:27;;;;;;;6.65;1.77;;;5.20;88.60;;;;;;5092734;28;20083;-75
2021/01/14 10:39:58;;;;;;;7.93;1.83;;;5.30;88.90;;;;;;5089426;28;20075;-72
2021/01/14 10:42:25;;;;;;;11.57;1.83;;;4.90;87.80;;;;;;5093844;27;20479;-72
2021/01/14 10:44:53;;;;;;;7.30;1.90;;;5.10;88.30;;;;;;5091784;27;20051;-75
2021/01/14 10:47:22;;;;;;;9.93;2.05;;;5.10;88.40;;;;;;5090856;28;20436;-75
2021/01/14 10:49:48;;;;;;;6.20;1.67;;;5.20;87.50;;;;;;5088364;28;20544;-70
2021/01/14 10:52:15;;;;;;;8.68;2.05;;;5.50;86.80;;;;;;5099729;28;20052;-75
2021/01/14 10:54:41;;;;;;;6.20;1.95;;;5.20;85.80;;;;;;5089886;28;20448;-71
2021/01/14 10:57:07;;;;;;;11.68;1.95;;;5.10;85.80;;;;;;5091575;28;20460;-68
2021/01/14 10:59:34;;;;;;;9.90;2.42;;;5.20;86.80;;;;;;5089229;28;20083;-68
2021/01/14 11:02:06;;;;;;;7.30;2.13;;;5.30;85.80;;;;;;5090226;28;20408;-69
2021/01/14 11:04:32;;;;;;;8.10;1.55;;;5.40;86.10;;;;;;5090575;27;20048;-71
2021/01/14 11:07:10;;;;;;;6.35;1.90;;;5.60;87.50;;;;;;5088794;28;20101;-74
2021/01/14 11:09:49;;;;;;;5.57;1.65;;;5.50;85.50;;;;;;5089756;28;20075;-73
2021/01/14 11:12:16;;;;;;;9.15;1.85;;;5.40;85.30;;;;;;5091814;28;20051;-72
2021/01/14 11:14:57;;;;;;;12.27;4.38;;;5.30;84.80;;;;;;5091954;27;20052;-71
2021/01/14 11:17:24;;;;;;;13.00;2.97;;;5.40;84.90;;;;;;5092679;27;20541;-73
2021/01/14 11:20:01;;;;;;;6.85;1.63;;;5.40;85.70;;;;;;5090247;28;20072;-76
2021/01/14 11:22:27;;;;;;;7.80;2.13;;;5.50;84.10;;;;;;5093673;28;20052;-70
2021/01/14 11:24:54;;;;;;;8.52;1.98;;;5.70;83.00;;;;;;5093088;28;20051;-73
2021/01/14 11:27:20;;;;;;;9.32;1.80;;;5.50;83.60;;;;;;5089966;28;20098;-72
2021/01/14 11:29:46;;;;;;;7.10;1.63;;;5.40;83.20;;;;;;5094946;28;20046;-73
2021/01/14 11:32:13;;;;;;;6.43;2.13;;;5.40;82.80;;;;;;5090030;28;20124;-73
2021/01/14 11:34:39;;;;;;;5.07;1.83;;;5.40;82.10;;;;;;5089661;28;20452;-71
2021/01/14 11:37:06;;;;;;;8.30;2.72;;;5.20;82.30;;;;;;5091615;28;20076;-73
2021/01/14 11:39:32;;;;;;;8.15;2.50;;;5.20;82.00;;;;;;5101442;28;20101;-74
2021/01/14 11:41:59;;;;;;;10.30;2.17;;;5.20;82.90;;;;;;5104900;28;20547;-74
2021/01/14 11:44:25;;;;;;;9.38;1.65;;;5.30;82.20;;;;;;5101163;27;20047;-72
2021/01/14 11:46:51;;;;;;;7.80;1.70;;;5.20;82.30;;;;;;5109499;28;20096;-73
2021/01/14 11:49:17;;;;;;;5.68;2.33;;;5.10;82.00;;;;;;5103219;28;20060;-74
2021/01/14 11:51:51;;;;;;;11.32;2.10;;;5.20;81.30;;;;;;5109532;27;20464;-73
2021/01/14 11:54:17;;;;;;;4.63;1.83;;;5.20;81.00;;;;;;5108212;28;20117;-73
2021/01/14 11:56:43;;;;;;;8.40;1.60;;;5.40;80.90;;;;;;5108792;27;20059;-73
2021/01/14 11:59:10;;;;;;;11.20;2.45;;;5.30;80.70;;;;;;5105540;28;20044;-73
2021/01/14 12:01:37;;;;;;;10.55;3.45;;;5.50;80.90;;;;;;5106432;28;20132;-74
2021/01/14 12:04:03;;;;;;;5.95;2.20;;;5.30;83.30;;;;;;5109544;28;20165;-74
2021/01/14 12:06:29;;;;;;;8.77;2.00;;;5.50;81.30;;;;;;5108881;28;20075;-75
2021/01/14 12:08:56;;;;;;;7.65;1.50;;;5.40;80.60;;;;;;5105599;28;20050;-74
2021/01/14 12:11:24;;;;;;;5.30;1.70;;;5.50;80.60;;;;;;5109222;28;20044;-74
2021/01/14 12:13:54;;;;;;;6.60;2.10;;;5.60;80.10;;;;;;5106765;28;20047;-87
2021/01/14 12:16:20;;;;;;;8.77;1.95;;;5.60;78.90;;;;;;5107973;28;20051;-72
2021/01/14 12:18:46;;;;;;;5.55;1.45;;;5.50;78.70;;;;;;5101693;28;20047;-76
2021/01/14 12:21:16;;;;;;;5.90;1.85;;;5.70;78.50;;;;;;5101374;28;20056;-74
2021/01/14 12:23:46;;;;;;;5.55;1.60;;;5.40;78.10;;;;;;5100668;28;20529;-73
2021/01/14 12:26:13;;;;;;;5.97;1.48;;;5.40;78.60;;;;;;5100587;28;20108;-70
2021/01/14 12:28:39;;;;;;;3.80;1.55;;;5.30;77.70;;;;;;5098977;28;20521;-70
2021/01/14 12:31:06;;;;;;;6.78;1.75;;;5.40;78.30;;;;;;5100549;28;20081;-71
2021/01/14 12:33:32;;;;;;;9.73;2.00;;;5.60;77.80;;;;;;5099370;28;20043;-70
2021/01/14 12:35:59;;;;;;;6.68;1.40;;;5.50;78.00;;;;;;5105819;28;20055;-71
2021/01/14 12:38:26;;;;;;;6.75;1.80;;;5.50;77.70;;;;;;5101900;28;20437;-71
2021/01/14 12:40:52;;;;;;;11.23;2.47;;;5.40;77.80;;;;;;5103180;28;20077;-70
2021/01/14 12:43:18;;;;;;;13.73;3.72;;;5.50;77.90;;;;;;5107108;28;20051;-71
2021/01/14 12:45:45;;;;;;;3.30;1.60;;;5.40;78.00;;;;;;5103725;28;20122;-71
2021/01/14 12:48:12;;;;;;;7.88;2.03;;;5.40;78.60;;;;;;5102016;28;20071;-71
2021/01/14 12:50:41;;;;;;;7.13;1.80;;;5.40;78.80;;;;;;5107193;28;20101;-70
2021/01/14 12:53:08;;;;;;;6.35;1.95;;;5.40;78.30;;;;;;5105834;28;20056;-71
2021/01/14 12:55:36;;;;;;;6.70;1.85;;;5.40;77.90;;;;;;5101191;28;20075;-71
2021/01/14 12:58:05;;;;;;;6.68;1.60;;;5.20;78.10;;;;;;5106870;28;20421;-71
2021/01/14 13:00:32;;;;;;;3.67;1.70;;;5.40;78.40;;;;;;5104501;28;20048;-70
2021/01/14 13:02:58;;;;;;;5.00;1.65;;;5.40;77.80;;;;;;5109101;28;20425;-71
2021/01/14 13:05:25;;;;;;;4.68;1.38;;;5.50;77.80;;;;;;5102404;28;20414;-71
2021/01/14 13:07:51;;;;;;;10.95;1.77;;;5.50;78.10;;;;;;5106856;28;20562;-73
2021/01/14 13:10:17;;;;;;;5.60;1.85;;;5.60;77.80;;;;;;5106996;28;20487;-70